sensor_id;sensor_type;location;lat;lon;timestamp;temperature;humidity
2625;DHT22;1322;53.256;10.386;2023-03-01T00:01:05;0.80;99.90
2625;DHT22;1322;53.256;10.386;2023-03-01T00:03:31;0.80;99.90
2625;DHT22;1322;53.256;10.386;2023-03-01T00:05:57;0.80;99.90
2625;DHT22;1322;53.256;10.386;2023-03-01T00:08:23;0.80;99.90
2625;DHT22;1322;53.256;10.386;2023-03-01T00:10:49;0.80;99.90
2625;DHT22;1322;53.256;10.386;2023-03-01T00:13:14;0.80;99.90
2625;DHT22;1322;53.256;10.386;2023-03-01T00:15:40;0.80;99.90
2625;DHT22;1322;53.256;10.386;2023-03-01T00:18:09;0.80;99.90
2625;DHT22;1322;53.256;10.386;2023-03-01T00:20:35;0.80;99.90
2625;DHT22;1322;53.256;10.386;2023-03-01T00:23:00;0.80;99.90
2625;DHT22;1322;53.256;10.386;2023-03-01T00:25:26;0.80;99.90
2625;DHT22;1322;53.256;10.386;2023-03-01T00:27:52;0.80;99.90
2625;DHT22;1322;53.256;10.386;2023-03-01T00:30:17;0.80;99.90
2625;DHT22;1322;53.256;10.386;2023-03-01T00:32:43;0.70;99.90
2625;DHT22;1322;53.256;10.386;2023-03-01T00:35:08;0.70;99.90
2625;DHT22;1322;53.256;10.386;2023-03-01T00:37:34;0.70;99.90
2625;DHT22;1322;53.256;10.386;2023-03-01T00:40:00;0.70;99.90
2625;DHT22;1322;53.256;10.386;2023-03-01T00:42:26;0.70;99.90
2625;DHT22;1322;53.256;10.386;2023-03-01T00:44:51;0.70;99.90
2625;DHT22;1322;53.256;10.386;2023-03-01T00:47:17;0.70;99.90
2625;DHT22;1322;53.256;10.386;2023-03-01T00:49:42;0.70;99.90
2625;DHT22;1322;53.256;10.386;2023-03-01T00:52:08;0.60;99.90
2625;DHT22;1322;53.256;10.386;2023-03-01T00:54:33;0.70;99.90
2625;DHT22;1322;53.256;10.386;2023-03-01T00:56:59;0.50;99.90
2625;DHT22;1322;53.256;10.386;2023-03-01T00:59:25;0.50;99.90
2625;DHT22;1322;53.256;10.386;2023-03-01T01:01:50;0.50;99.90
2625;DHT22;1322;53.256;10.386;2023-03-01T01:04:16;0.50;99.90
2625;DHT22;1322;53.256;10.386;2023-03-01T01:06:44;0.50;99.90
2625;DHT22;1322;53.256;10.386;2023-03-01T01:09:11;0.50;99.90
2625;DHT22;1322;53.256;10.386;2023-03-01T01:11:51;0.50;99.90
2625;DHT22;1322;53.256;10.386;2023-03-01T01:14:17;0.50;99.90
2625;DHT22;1322;53.256;10.386;2023-03-01T01:16:44;0.50;99.90
2625;DHT22;1322;53.256;10.386;2023-03-01T01:19:11;0.50;99.90
2625;DHT22;1322;53.256;10.386;2023-03-01T01:21:37;0.50;99.90
2625;DHT22;1322;53.256;10.386;2023-03-01T01:24:03;0.40;99.90
2625;DHT22;1322;53.256;10.386;2023-03-01T01:26:31;0.40;99.90
2625;DHT22;1322;53.256;10.386;2023-03-01T01:28:58;0.40;99.90
2625;DHT22;1322;53.256;10.386;2023-03-01T01:31:24;0.40;99.90
2625;DHT22;1322;53.256;10.386;2023-03-01T01:33:52;0.40;99.90
2625;DHT22;1322;53.256;10.386;2023-03-01T01:36:18;0.40;99.90
2625;DHT22;1322;53.256;10.386;2023-03-01T01:38:44;0.40;99.90
2625;DHT22;1322;53.256;10.386;2023-03-01T01:41:11;0.40;99.90
2625;DHT22;1322;53.256;10.386;2023-03-01T01:43:43;0.40;99.90
2625;DHT22;1322;53.256;10.386;2023-03-01T01:46:31;0.40;99.90
2625;DHT22;1322;53.256;10.386;2023-03-01T01:49:03;0.40;99.90
2625;DHT22;1322;53.256;10.386;2023-03-01T01:51:40;0.40;99.90
2625;DHT22;1322;53.256;10.386;2023-03-01T01:54:14;0.40;99.90
2625;DHT22;1322;53.256;10.386;2023-03-01T01:56:44;0.30;99.90
2625;DHT22;1322;53.256;10.386;2023-03-01T01:59:11;0.40;99.90
2625;DHT22;1322;53.256;10.386;2023-03-01T02:01:37;0.40;99.90
2625;DHT22;1322;53.256;10.386;2023-03-01T02:04:04;0.30;99.90
2625;DHT22;1322;53.256;10.386;2023-03-01T02:06:35;0.30;99.90
2625;DHT22;1322;53.256;10.386;2023-03-01T02:09:07;0.30;99.90
2625;DHT22;1322;53.256;10.386;2023-03-01T02:11:33;0.30;99.90
2625;DHT22;1322;53.256;10.386;2023-03-01T02:13:59;0.30;99.90
2625;DHT22;1322;53.256;10.386;2023-03-01T02:16:26;0.30;99.90
2625;DHT22;1322;53.256;10.386;2023-03-01T02:18:52;0.30;99.90
2625;DHT22;1322;53.256;10.386;2023-03-01T02:24:36;0.30;99.90
2625;DHT22;1322;53.256;10.386;2023-03-01T02:27:04;0.30;99.90
2625;DHT22;1322;53.256;10.386;2023-03-01T02:29:30;0.20;99.90
2625;DHT22;1322;53.256;10.386;2023-03-01T02:31:58;0.20;99.90
2625;DHT22;1322;53.256;10.386;2023-03-01T02:34:25;0.20;99.90
2625;DHT22;1322;53.256;10.386;2023-03-01T02:37:05;0.20;99.90
2625;DHT22;1322;53.256;10.386;2023-03-01T02:39:46;0.20;99.90
2625;DHT22;1322;53.256;10.386;2023-03-01T02:42:17;0.20;99.90
2625;DHT22;1322;53.256;10.386;2023-03-01T02:44:44;0.20;99.90
2625;DHT22;1322;53.256;10.386;2023-03-01T02:47:10;0.30;99.90
2625;DHT22;1322;53.256;10.386;2023-03-01T02:49:36;0.40;99.90
2625;DHT22;1322;53.256;10.386;2023-03-01T02:55:06;0.40;99.90
2625;DHT22;1322;53.256;10.386;2023-03-01T02:57:35;0.40;99.90
2625;DHT22;1322;53.256;10.386;2023-03-01T03:00:08;0.40;99.90
2625;DHT22;1322;53.256;10.386;2023-03-01T03:02:35;0.30;99.90
2625;DHT22;1322;53.256;10.386;2023-03-01T03:07:37;0.30;99.90
2625;DHT22;1322;53.256;10.386;2023-03-01T03:10:04;0.30;99.90
2625;DHT22;1322;53.256;10.386;2023-03-01T03:12:30;0.30;99.90
2625;DHT22;1322;53.256;10.386;2023-03-01T03:14:56;0.20;99.90
2625;DHT22;1322;53.256;10.386;2023-03-01T03:17:22;0.20;99.90
2625;DHT22;1322;53.256;10.386;2023-03-01T03:19:47;0.20;99.90
2625;DHT22;1322;53.256;10.386;2023-03-01T03:22:13;0.20;99.90
2625;DHT22;1322;53.256;10.386;2023-03-01T03:24:39;0.10;99.90
2625;DHT22;1322;53.256;10.386;2023-03-01T03:27:05;0.10;99.90
2625;DHT22;1322;53.256;10.386;2023-03-01T03:29:31;0.10;99.90
2625;DHT22;1322;53.256;10.386;2023-03-01T03:31:57;0.00;99.90
2625;DHT22;1322;53.256;10.386;2023-03-01T03:34:22;0.00;99.90
2625;DHT22;1322;53.256;10.386;2023-03-01T03:36:52;0.00;99.90
2625;DHT22;1322;53.256;10.386;2023-03-01T03:39:22;0.00;99.90
2625;DHT22;1322;53.256;10.386;2023-03-01T03:41:48;-0.10;99.90
2625;DHT22;1322;53.256;10.386;2023-03-01T03:44:14;0.00;99.90
2625;DHT22;1322;53.256;10.386;2023-03-01T03:46:39;0.00;99.90
2625;DHT22;1322;53.256;10.386;2023-03-01T03:49:05;0.00;99.90
2625;DHT22;1322;53.256;10.386;2023-03-01T03:51:31;-0.10;99.90
2625;DHT22;1322;53.256;10.386;2023-03-01T03:53:56;-0.10;99.90
2625;DHT22;1322;53.256;10.386;2023-03-01T03:56:22;-0.10;99.90
2625;DHT22;1322;53.256;10.386;2023-03-01T03:58:51;-0.10;99.90
2625;DHT22;1322;53.256;10.386;2023-03-01T04:01:17;-0.10;99.90
2625;DHT22;1322;53.256;10.386;2023-03-01T04:03:43;-0.10;99.90
2625;DHT22;1322;53.256;10.386;2023-03-01T04:06:13;-0.10;99.90
2625;DHT22;1322;53.256;10.386;2023-03-01T04:08:38;-0.10;99.90
2625;DHT22;1322;53.256;10.386;2023-03-01T04:11:05;-0.10;99.90
2625;DHT22;1322;53.256;10.386;2023-03-01T04:13:49;-0.10;99.90
2625;DHT22;1322;53.256;10.386;2023-03-01T04:16:16;-0.10;99.90
2625;DHT22;1322;53.256;10.386;2023-03-01T04:18:41;-0.10;99.90
2625;DHT22;1322;53.256;10.386;2023-03-01T04:21:07;-0.10;99.90
2625;DHT22;1322;53.256;10.386;2023-03-01T04:23:32;-0.10;99.90
2625;DHT22;1322;53.256;10.386;2023-03-01T04:25:58;-0.10;99.90
2625;DHT22;1322;53.256;10.386;2023-03-01T04:28:32;-0.10;99.90
2625;DHT22;1322;53.256;10.386;2023-03-01T04:31:03;-0.10;99.90
2625;DHT22;1322;53.256;10.386;2023-03-01T04:33:45;-0.20;99.90
2625;DHT22;1322;53.256;10.386;2023-03-01T04:36:15;-0.30;99.90
2625;DHT22;1322;53.256;10.386;2023-03-01T04:38:41;-0.40;99.90
2625;DHT22;1322;53.256;10.386;2023-03-01T04:41:10;-0.40;99.90
2625;DHT22;1322;53.256;10.386;2023-03-01T04:43:36;-0.40;99.90
2625;DHT22;1322;53.256;10.386;2023-03-01T04:46:08;-0.40;99.90
2625;DHT22;1322;53.256;10.386;2023-03-01T04:48:36;-0.40;99.90
2625;DHT22;1322;53.256;10.386;2023-03-01T04:51:02;-0.40;99.90
2625;DHT22;1322;53.256;10.386;2023-03-01T04:53:28;-0.30;99.90
2625;DHT22;1322;53.256;10.386;2023-03-01T04:55:55;-0.30;99.90
2625;DHT22;1322;53.256;10.386;2023-03-01T04:58:22;-0.30;99.90
2625;DHT22;1322;53.256;10.386;2023-03-01T05:00:48;-0.30;99.90
2625;DHT22;1322;53.256;10.386;2023-03-01T05:03:14;-0.30;99.90
2625;DHT22;1322;53.256;10.386;2023-03-01T05:05:45;-0.40;99.90
2625;DHT22;1322;53.256;10.386;2023-03-01T05:08:11;-0.30;99.90
2625;DHT22;1322;53.256;10.386;2023-03-01T05:10:45;-0.40;99.90
2625;DHT22;1322;53.256;10.386;2023-03-01T05:13:12;-0.30;99.90
2625;DHT22;1322;53.256;10.386;2023-03-01T05:15:39;-0.30;99.90
2625;DHT22;1322;53.256;10.386;2023-03-01T05:18:05;-0.30;99.90
2625;DHT22;1322;53.256;10.386;2023-03-01T05:20:37;-0.30;99.90
2625;DHT22;1322;53.256;10.386;2023-03-01T05:23:03;-0.20;99.90
2625;DHT22;1322;53.256;10.386;2023-03-01T05:25:30;-0.10;99.90
2625;DHT22;1322;53.256;10.386;2023-03-01T05:27:58;0.00;99.90
2625;DHT22;1322;53.256;10.386;2023-03-01T05:30:24;0.10;99.90
2625;DHT22;1322;53.256;10.386;2023-03-01T05:32:50;0.20;99.90
2625;DHT22;1322;53.256;10.386;2023-03-01T05:35:21;0.20;99.90
2625;DHT22;1322;53.256;10.386;2023-03-01T05:37:48;0.20;99.90
2625;DHT22;1322;53.256;10.386;2023-03-01T05:40:23;0.20;99.90
2625;DHT22;1322;53.256;10.386;2023-03-01T05:42:54;0.30;99.90
2625;DHT22;1322;53.256;10.386;2023-03-01T05:45:20;0.40;99.90
2625;DHT22;1322;53.256;10.386;2023-03-01T05:47:47;0.40;99.90
2625;DHT22;1322;53.256;10.386;2023-03-01T05:50:25;0.50;99.90
2625;DHT22;1322;53.256;10.386;2023-03-01T05:53:03;0.60;99.90
2625;DHT22;1322;53.256;10.386;2023-03-01T05:55:31;0.60;99.90
2625;DHT22;1322;53.256;10.386;2023-03-01T05:58:01;0.50;99.90
2625;DHT22;1322;53.256;10.386;2023-03-01T06:00:28;0.60;99.90
2625;DHT22;1322;53.256;10.386;2023-03-01T06:02:55;0.70;99.90
2625;DHT22;1322;53.256;10.386;2023-03-01T06:05:21;0.80;99.90
2625;DHT22;1322;53.256;10.386;2023-03-01T06:07:48;0.80;99.90
2625;DHT22;1322;53.256;10.386;2023-03-01T06:10:14;0.80;99.90
2625;DHT22;1322;53.256;10.386;2023-03-01T06:12:41;0.80;99.90
2625;DHT22;1322;53.256;10.386;2023-03-01T06:15:08;0.70;99.90
2625;DHT22;1322;53.256;10.386;2023-03-01T06:17:39;0.70;99.90
2625;DHT22;1322;53.256;10.386;2023-03-01T06:20:09;0.80;99.90
2625;DHT22;1322;53.256;10.386;2023-03-01T06:22:35;0.80;99.90
2625;DHT22;1322;53.256;10.386;2023-03-01T06:25:01;0.90;99.90
2625;DHT22;1322;53.256;10.386;2023-03-01T06:27:27;0.90;99.90
2625;DHT22;1322;53.256;10.386;2023-03-01T06:29:53;0.90;99.90
2625;DHT22;1322;53.256;10.386;2023-03-01T06:32:18;1.00;99.90
2625;DHT22;1322;53.256;10.386;2023-03-01T06:34:44;1.00;99.90
2625;DHT22;1322;53.256;10.386;2023-03-01T06:37:10;0.90;99.90
2625;DHT22;1322;53.256;10.386;2023-03-01T06:39:36;0.80;99.90
2625;DHT22;1322;53.256;10.386;2023-03-01T06:42:05;1.00;99.90
2625;DHT22;1322;53.256;10.386;2023-03-01T06:44:30;0.90;99.90
2625;DHT22;1322;53.256;10.386;2023-03-01T06:46:56;1.00;99.90
2625;DHT22;1322;53.256;10.386;2023-03-01T06:49:22;1.10;99.90
2625;DHT22;1322;53.256;10.386;2023-03-01T06:51:47;1.20;99.90
2625;DHT22;1322;53.256;10.386;2023-03-01T06:54:13;1.30;99.90
2625;DHT22;1322;53.256;10.386;2023-03-01T06:56:39;1.40;99.90
2625;DHT22;1322;53.256;10.386;2023-03-01T06:59:04;1.50;99.90
2625;DHT22;1322;53.256;10.386;2023-03-01T07:01:30;1.60;99.90
2625;DHT22;1322;53.256;10.386;2023-03-01T07:03:56;1.70;99.90
2625;DHT22;1322;53.256;10.386;2023-03-01T07:06:22;1.80;99.90
2625;DHT22;1322;53.256;10.386;2023-03-01T07:08:48;1.90;99.90
2625;DHT22;1322;53.256;10.386;2023-03-01T07:11:14;1.90;99.90
2625;DHT22;1322;53.256;10.386;2023-03-01T07:13:40;2.00;99.90
2625;DHT22;1322;53.256;10.386;2023-03-01T07:16:06;2.10;99.90
2625;DHT22;1322;53.256;10.386;2023-03-01T07:18:32;2.20;99.90
2625;DHT22;1322;53.256;10.386;2023-03-01T07:20:57;2.20;99.90
2625;DHT22;1322;53.256;10.386;2023-03-01T07:23:23;2.20;99.90
2625;DHT22;1322;53.256;10.386;2023-03-01T07:25:55;2.30;99.90
2625;DHT22;1322;53.256;10.386;2023-03-01T07:28:24;2.40;99.90
2625;DHT22;1322;53.256;10.386;2023-03-01T07:30:50;2.50;99.90
2625;DHT22;1322;53.256;10.386;2023-03-01T07:33:17;2.60;99.90
2625;DHT22;1322;53.256;10.386;2023-03-01T07:35:43;2.70;99.90
2625;DHT22;1322;53.256;10.386;2023-03-01T07:38:09;2.80;99.90
2625;DHT22;1322;53.256;10.386;2023-03-01T07:40:35;2.90;99.90
2625;DHT22;1322;53.256;10.386;2023-03-01T07:43:01;3.00;99.90
2625;DHT22;1322;53.256;10.386;2023-03-01T07:45:27;3.10;99.90
2625;DHT22;1322;53.256;10.386;2023-03-01T07:47:53;3.30;99.90
2625;DHT22;1322;53.256;10.386;2023-03-01T07:50:19;3.40;99.90
2625;DHT22;1322;53.256;10.386;2023-03-01T07:52:46;3.50;99.90
2625;DHT22;1322;53.256;10.386;2023-03-01T07:55:12;3.60;99.90
2625;DHT22;1322;53.256;10.386;2023-03-01T07:57:38;3.70;99.90
2625;DHT22;1322;53.256;10.386;2023-03-01T08:00:05;3.60;99.90
2625;DHT22;1322;53.256;10.386;2023-03-01T08:02:31;3.70;99.90
2625;DHT22;1322;53.256;10.386;2023-03-01T08:04:57;3.90;99.90
2625;DHT22;1322;53.256;10.386;2023-03-01T08:07:23;4.10;99.90
2625;DHT22;1322;53.256;10.386;2023-03-01T08:09:48;4.20;99.90
2625;DHT22;1322;53.256;10.386;2023-03-01T08:12:14;4.30;99.90
2625;DHT22;1322;53.256;10.386;2023-03-01T08:14:41;4.40;99.90
2625;DHT22;1322;53.256;10.386;2023-03-01T08:17:07;4.40;99.90
2625;DHT22;1322;53.256;10.386;2023-03-01T08:19:32;4.50;99.90
2625;DHT22;1322;53.256;10.386;2023-03-01T08:22:02;4.60;99.90
2625;DHT22;1322;53.256;10.386;2023-03-01T08:24:28;4.70;99.90
2625;DHT22;1322;53.256;10.386;2023-03-01T08:26:55;4.70;99.90
2625;DHT22;1322;53.256;10.386;2023-03-01T08:29:21;4.70;99.90
2625;DHT22;1322;53.256;10.386;2023-03-01T08:31:47;4.70;99.90
2625;DHT22;1322;53.256;10.386;2023-03-01T08:34:14;4.80;99.90
2625;DHT22;1322;53.256;10.386;2023-03-01T08:36:42;4.90;99.90
2625;DHT22;1322;53.256;10.386;2023-03-01T08:39:10;5.00;99.90
2625;DHT22;1322;53.256;10.386;2023-03-01T08:41:36;5.00;99.90
2625;DHT22;1322;53.256;10.386;2023-03-01T08:44:03;5.10;99.90
2625;DHT22;1322;53.256;10.386;2023-03-01T08:46:34;5.20;99.90
2625;DHT22;1322;53.256;10.386;2023-03-01T08:49:06;5.40;99.90
2625;DHT22;1322;53.256;10.386;2023-03-01T08:51:32;5.60;99.90
2625;DHT22;1322;53.256;10.386;2023-03-01T08:54:05;5.80;99.90
2625;DHT22;1322;53.256;10.386;2023-03-01T08:56:32;5.90;99.90
2625;DHT22;1322;53.256;10.386;2023-03-01T08:58:58;6.00;99.90
2625;DHT22;1322;53.256;10.386;2023-03-01T09:01:24;6.10;99.90
2625;DHT22;1322;53.256;10.386;2023-03-01T09:03:49;6.20;99.90
2625;DHT22;1322;53.256;10.386;2023-03-01T09:06:18;6.30;99.90
2625;DHT22;1322;53.256;10.386;2023-03-01T09:08:46;6.40;99.90
2625;DHT22;1322;53.256;10.386;2023-03-01T09:11:15;6.60;99.90
2625;DHT22;1322;53.256;10.386;2023-03-01T09:13:43;6.60;99.90
2625;DHT22;1322;53.256;10.386;2023-03-01T09:16:09;6.70;99.90
2625;DHT22;1322;53.256;10.386;2023-03-01T09:18:35;6.90;99.90
2625;DHT22;1322;53.256;10.386;2023-03-01T09:21:21;6.90;99.90
2625;DHT22;1322;53.256;10.386;2023-03-01T09:23:48;7.00;99.90
2625;DHT22;1322;53.256;10.386;2023-03-01T09:26:16;7.00;99.90
2625;DHT22;1322;53.256;10.386;2023-03-01T09:28:44;7.00;99.90
2625;DHT22;1322;53.256;10.386;2023-03-01T09:31:10;7.10;99.90
2625;DHT22;1322;53.256;10.386;2023-03-01T09:33:39;7.00;99.90
2625;DHT22;1322;53.256;10.386;2023-03-01T09:36:07;6.90;99.90
2625;DHT22;1322;53.256;10.386;2023-03-01T09:38:33;6.70;99.90
2625;DHT22;1322;53.256;10.386;2023-03-01T09:41:00;6.70;99.90
2625;DHT22;1322;53.256;10.386;2023-03-01T09:45:59;6.90;99.90
2625;DHT22;1322;53.256;10.386;2023-03-01T09:48:30;7.00;99.90
2625;DHT22;1322;53.256;10.386;2023-03-01T09:50:58;7.00;99.90
2625;DHT22;1322;53.256;10.386;2023-03-01T09:53:32;7.00;99.90
2625;DHT22;1322;53.256;10.386;2023-03-01T09:56:27;6.90;99.90
2625;DHT22;1322;53.256;10.386;2023-03-01T09:58:59;6.90;99.90
2625;DHT22;1322;53.256;10.386;2023-03-01T10:07:22;7.30;99.90
2625;DHT22;1322;53.256;10.386;2023-03-01T10:09:52;7.40;99.90
2625;DHT22;1322;53.256;10.386;2023-03-01T10:12:23;7.60;99.90
2625;DHT22;1322;53.256;10.386;2023-03-01T10:16:03;7.70;99.90
2625;DHT22;1322;53.256;10.386;2023-03-01T10:18:00;7.90;99.90
2625;DHT22;1322;53.256;10.386;2023-03-01T10:20:53;8.00;99.90
2625;DHT22;1322;53.256;10.386;2023-03-01T10:23:19;8.00;99.90
2625;DHT22;1322;53.256;10.386;2023-03-01T10:28:36;8.00;99.90
2625;DHT22;1322;53.256;10.386;2023-03-01T10:31:05;8.20;99.90
2625;DHT22;1322;53.256;10.386;2023-03-01T10:33:38;8.30;99.90
2625;DHT22;1322;53.256;10.386;2023-03-01T10:36:07;8.20;99.90
2625;DHT22;1322;53.256;10.386;2023-03-01T10:38:49;8.30;99.90
2625;DHT22;1322;53.256;10.386;2023-03-01T10:41:17;8.40;99.90
2625;DHT22;1322;53.256;10.386;2023-03-01T10:43:49;8.60;99.90
2625;DHT22;1322;53.256;10.386;2023-03-01T10:46:29;8.60;99.90
2625;DHT22;1322;53.256;10.386;2023-03-01T10:51:44;8.70;99.90
2625;DHT22;1322;53.256;10.386;2023-03-01T10:54:21;8.60;99.90
2625;DHT22;1322;53.256;10.386;2023-03-01T10:56:52;8.60;99.90
2625;DHT22;1322;53.256;10.386;2023-03-01T11:02:22;8.50;99.90
2625;DHT22;1322;53.256;10.386;2023-03-01T11:05:13;8.50;99.90
2625;DHT22;1322;53.256;10.386;2023-03-01T11:10:19;8.20;99.90
2625;DHT22;1322;53.256;10.386;2023-03-01T11:12:45;8.10;99.90
2625;DHT22;1322;53.256;10.386;2023-03-01T11:15:27;8.20;99.90
2625;DHT22;1322;53.256;10.386;2023-03-01T11:17:53;8.30;99.90
2625;DHT22;1322;53.256;10.386;2023-03-01T11:20:32;8.10;99.90
2625;DHT22;1322;53.256;10.386;2023-03-01T11:23:05;8.00;99.90
2625;DHT22;1322;53.256;10.386;2023-03-01T11:25:40;8.10;99.90
2625;DHT22;1322;53.256;10.386;2023-03-01T11:28:12;8.10;99.90
2625;DHT22;1322;53.256;10.386;2023-03-01T11:31:12;8.00;99.90
2625;DHT22;1322;53.256;10.386;2023-03-01T11:33:54;8.00;99.90
2625;DHT22;1322;53.256;10.386;2023-03-01T11:38:57;7.80;99.90
2625;DHT22;1322;53.256;10.386;2023-03-01T11:41:31;7.80;99.90
2625;DHT22;1322;53.256;10.386;2023-03-01T11:44:16;7.80;99.90
2625;DHT22;1322;53.256;10.386;2023-03-01T11:47:27;7.90;99.90
2625;DHT22;1322;53.256;10.386;2023-03-01T11:52:18;7.90;99.90
2625;DHT22;1322;53.256;10.386;2023-03-01T12:02:56;7.80;99.90
2625;DHT22;1322;53.256;10.386;2023-03-01T12:08:35;7.90;99.90
2625;DHT22;1322;53.256;10.386;2023-03-01T12:11:52;7.70;99.90
2625;DHT22;1322;53.256;10.386;2023-03-01T12:25:13;7.70;99.90
2625;DHT22;1322;53.256;10.386;2023-03-01T12:28:00;7.70;99.90
2625;DHT22;1322;53.256;10.386;2023-03-01T12:33:32;7.80;99.90
2625;DHT22;1322;53.256;10.386;2023-03-01T12:38:48;8.00;99.90
2625;DHT22;1322;53.256;10.386;2023-03-01T12:49:13;7.90;99.90
2625;DHT22;1322;53.256;10.386;2023-03-01T12:51:40;8.00;99.90
2625;DHT22;1322;53.256;10.386;2023-03-01T12:54:22;8.10;99.90
2625;DHT22;1322;53.256;10.386;2023-03-01T12:56:51;8.10;99.90
2625;DHT22;1322;53.256;10.386;2023-03-01T13:09:56;8.30;99.90
2625;DHT22;1322;53.256;10.386;2023-03-01T13:18:00;8.30;99.90
2625;DHT22;1322;53.256;10.386;2023-03-01T13:20:47;8.30;99.90
2625;DHT22;1322;53.256;10.386;2023-03-01T13:28:49;8.40;99.90
2625;DHT22;1322;53.256;10.386;2023-03-01T13:33:51;8.30;99.90
2625;DHT22;1322;53.256;10.386;2023-03-01T13:46:52;8.30;99.90
2625;DHT22;1322;53.256;10.386;2023-03-01T13:49:25;8.30;99.90
2625;DHT22;1322;53.256;10.386;2023-03-01T13:51:52;8.40;99.90
2625;DHT22;1322;53.256;10.386;2023-03-01T13:54:38;8.40;99.90
2625;DHT22;1322;53.256;10.386;2023-03-01T13:57:04;8.30;99.90
2625;DHT22;1322;53.256;10.386;2023-03-01T13:59:29;8.40;99.90
2625;DHT22;1322;53.256;10.386;2023-03-01T14:02:00;8.40;99.90
2625;DHT22;1322;53.256;10.386;2023-03-01T14:04:33;8.40;99.90
2625;DHT22;1322;53.256;10.386;2023-03-01T14:07:18;8.40;99.90
2625;DHT22;1322;53.256;10.386;2023-03-01T14:09:47;8.50;99.90
2625;DHT22;1322;53.256;10.386;2023-03-01T14:14:55;8.40;99.90
2625;DHT22;1322;53.256;10.386;2023-03-01T14:20:24;8.40;99.90
2625;DHT22;1322;53.256;10.386;2023-03-01T14:22:54;8.50;99.90
2625;DHT22;1322;53.256;10.386;2023-03-01T14:30:36;8.50;99.90
2625;DHT22;1322;53.256;10.386;2023-03-01T14:33:05;8.50;99.90
2625;DHT22;1322;53.256;10.386;2023-03-01T14:35:36;8.50;99.90
2625;DHT22;1322;53.256;10.386;2023-03-01T14:38:02;8.50;99.90
2625;DHT22;1322;53.256;10.386;2023-03-01T14:40:30;8.50;99.90
2625;DHT22;1322;53.256;10.386;2023-03-01T14:42:58;8.50;99.90
2625;DHT22;1322;53.256;10.386;2023-03-01T14:45:26;8.50;99.90
2625;DHT22;1322;53.256;10.386;2023-03-01T14:47:52;8.70;99.90
2625;DHT22;1322;53.256;10.386;2023-03-01T14:52:55;8.70;99.90
2625;DHT22;1322;53.256;10.386;2023-03-01T14:55:27;8.60;99.90
2625;DHT22;1322;53.256;10.386;2023-03-01T14:57:54;8.60;99.90
2625;DHT22;1322;53.256;10.386;2023-03-01T15:00:21;8.70;99.90
2625;DHT22;1322;53.256;10.386;2023-03-01T15:02:51;8.70;99.90
2625;DHT22;1322;53.256;10.386;2023-03-01T15:05:26;8.80;99.90
2625;DHT22;1322;53.256;10.386;2023-03-01T15:07:53;8.50;99.90
2625;DHT22;1322;53.256;10.386;2023-03-01T15:10:26;8.50;99.90
2625;DHT22;1322;53.256;10.386;2023-03-01T15:12:52;8.50;99.90
2625;DHT22;1322;53.256;10.386;2023-03-01T15:15:43;8.50;99.90
2625;DHT22;1322;53.256;10.386;2023-03-01T15:18:26;8.50;99.90
2625;DHT22;1322;53.256;10.386;2023-03-01T15:20:52;8.60;99.90
2625;DHT22;1322;53.256;10.386;2023-03-01T15:25:48;8.60;99.90
2625;DHT22;1322;53.256;10.386;2023-03-01T15:28:33;8.60;99.90
2625;DHT22;1322;53.256;10.386;2023-03-01T15:31:03;8.60;99.90
2625;DHT22;1322;53.256;10.386;2023-03-01T15:33:33;8.50;99.90
2625;DHT22;1322;53.256;10.386;2023-03-01T15:36:01;8.50;99.90
2625;DHT22;1322;53.256;10.386;2023-03-01T15:38:51;8.50;99.90
2625;DHT22;1322;53.256;10.386;2023-03-01T15:41:46;8.50;99.90
2625;DHT22;1322;53.256;10.386;2023-03-01T15:44:29;8.50;99.90
2625;DHT22;1322;53.256;10.386;2023-03-01T15:46:55;8.60;99.90
2625;DHT22;1322;53.256;10.386;2023-03-01T15:51:46;8.40;99.90
2625;DHT22;1322;53.256;10.386;2023-03-01T15:54:21;8.30;99.90
2625;DHT22;1322;53.256;10.386;2023-03-01T15:56:47;8.30;99.90
2625;DHT22;1322;53.256;10.386;2023-03-01T15:59:13;8.30;99.90
2625;DHT22;1322;53.256;10.386;2023-03-01T16:01:40;8.30;99.90
2625;DHT22;1322;53.256;10.386;2023-03-01T16:04:06;8.40;99.90
2625;DHT22;1322;53.256;10.386;2023-03-01T16:06:31;8.40;99.90
2625;DHT22;1322;53.256;10.386;2023-03-01T16:08:57;8.40;99.90
2625;DHT22;1322;53.256;10.386;2023-03-01T16:11:22;8.40;99.90
2625;DHT22;1322;53.256;10.386;2023-03-01T16:13:48;8.50;99.90
2625;DHT22;1322;53.256;10.386;2023-03-01T16:16:15;8.40;99.90
2625;DHT22;1322;53.256;10.386;2023-03-01T16:18:43;8.40;99.90
2625;DHT22;1322;53.256;10.386;2023-03-01T16:21:13;8.40;99.90
2625;DHT22;1322;53.256;10.386;2023-03-01T16:23:39;8.40;99.90
2625;DHT22;1322;53.256;10.386;2023-03-01T16:26:04;8.30;99.90
2625;DHT22;1322;53.256;10.386;2023-03-01T16:28:30;8.40;99.90
2625;DHT22;1322;53.256;10.386;2023-03-01T16:30:55;8.30;99.90
2625;DHT22;1322;53.256;10.386;2023-03-01T16:33:21;8.30;99.90
2625;DHT22;1322;53.256;10.386;2023-03-01T16:35:47;8.20;99.90
2625;DHT22;1322;53.256;10.386;2023-03-01T16:38:12;8.20;99.90
2625;DHT22;1322;53.256;10.386;2023-03-01T16:40:38;8.20;99.90
2625;DHT22;1322;53.256;10.386;2023-03-01T16:43:04;8.20;99.90
2625;DHT22;1322;53.256;10.386;2023-03-01T16:45:34;8.20;99.90
2625;DHT22;1322;53.256;10.386;2023-03-01T16:48:01;8.20;99.90
2625;DHT22;1322;53.256;10.386;2023-03-01T16:50:26;8.20;99.90
2625;DHT22;1322;53.256;10.386;2023-03-01T16:52:52;8.20;99.90
2625;DHT22;1322;53.256;10.386;2023-03-01T16:55:18;8.10;99.90
2625;DHT22;1322;53.256;10.386;2023-03-01T16:57:45;8.10;99.90
2625;DHT22;1322;53.256;10.386;2023-03-01T17:00:12;8.10;99.90
2625;DHT22;1322;53.256;10.386;2023-03-01T17:02:39;8.10;99.90
2625;DHT22;1322;53.256;10.386;2023-03-01T17:05:06;8.00;99.90
2625;DHT22;1322;53.256;10.386;2023-03-01T17:07:32;8.00;99.90
2625;DHT22;1322;53.256;10.386;2023-03-01T17:10:00;7.90;99.90
2625;DHT22;1322;53.256;10.386;2023-03-01T17:12:26;7.90;99.90
2625;DHT22;1322;53.256;10.386;2023-03-01T17:14:51;7.70;99.90
2625;DHT22;1322;53.256;10.386;2023-03-01T17:17:17;7.60;99.90
2625;DHT22;1322;53.256;10.386;2023-03-01T17:19:42;7.50;99.90
2625;DHT22;1322;53.256;10.386;2023-03-01T17:22:10;7.30;99.90
2625;DHT22;1322;53.256;10.386;2023-03-01T17:24:37;7.20;99.90
2625;DHT22;1322;53.256;10.386;2023-03-01T17:27:04;7.20;99.90
2625;DHT22;1322;53.256;10.386;2023-03-01T17:29:30;7.10;99.90
2625;DHT22;1322;53.256;10.386;2023-03-01T17:31:55;7.10;99.90
2625;DHT22;1322;53.256;10.386;2023-03-01T17:34:22;7.00;99.90
2625;DHT22;1322;53.256;10.386;2023-03-01T17:36:48;6.90;99.90
2625;DHT22;1322;53.256;10.386;2023-03-01T17:39:19;6.90;99.90
2625;DHT22;1322;53.256;10.386;2023-03-01T17:41:50;6.80;99.90
2625;DHT22;1322;53.256;10.386;2023-03-01T17:44:16;6.70;99.90
2625;DHT22;1322;53.256;10.386;2023-03-01T17:46:42;6.60;99.90
2625;DHT22;1322;53.256;10.386;2023-03-01T17:49:07;6.60;99.90
2625;DHT22;1322;53.256;10.386;2023-03-01T17:51:33;6.50;99.90
2625;DHT22;1322;53.256;10.386;2023-03-01T17:53:59;6.50;99.90
2625;DHT22;1322;53.256;10.386;2023-03-01T17:56:24;6.40;99.90
2625;DHT22;1322;53.256;10.386;2023-03-01T17:58:50;6.30;99.90
2625;DHT22;1322;53.256;10.386;2023-03-01T18:01:18;6.30;99.90
2625;DHT22;1322;53.256;10.386;2023-03-01T18:03:44;6.30;99.90
2625;DHT22;1322;53.256;10.386;2023-03-01T18:06:30;6.20;99.90
2625;DHT22;1322;53.256;10.386;2023-03-01T18:08:56;6.10;99.90
2625;DHT22;1322;53.256;10.386;2023-03-01T18:11:24;6.10;99.90
2625;DHT22;1322;53.256;10.386;2023-03-01T18:13:50;6.10;99.90